Time;durP1;ratioP1;P1;durP2;ratioP2;P2;SDS_P1;SDS_P2;PMS_P1;PMS_P2;Temp;Humidity;BMP_temperature;BMP_pressure;BME280_temperature;BME280_humidity;BME280_pressure;Samples;Min_cycle;Max_cycle;Signal;HPM_P1;HPM_P2
2023/03/12 00:00:10;;;;;;;;;;;21.50;30.10;;;;;;5091367;28;19923;-69
2023/03/12 00:02:35;;;;;;;;;;;21.50;30.10;;;;;;5092379;28;19926;-69
2023/03/12 00:05:01;;;;;;;;;;;21.40;30.10;;;;;;5091067;28;20006;-69
2023/03/12 00:07:26;;;;;;;;;;;21.40;30.10;;;;;;5125411;27;20010;-69
2023/03/12 00:09:52;;;;;;;;;;;21.40;30.10;;;;;;5095515;28;19924;-69
2023/03/12 00:12:17;;;;;;;;;;;21.40;30.20;;;;;;5129229;27;19919;-70
2023/03/12 00:14:46;;;;;;;;;;;21.30;30.10;;;;;;5095451;28;19999;-70
2023/03/12 00:17:11;;;;;;;;;;;21.30;30.10;;;;;;5095321;28;20344;-70
2023/03/12 00:19:37;;;;;;;;;;;21.30;30.10;;;;;;5078355;28;20018;-69
2023/03/12 00:22:02;;;;;;;;;;;21.30;30.10;;;;;;5094871;28;19985;-69
2023/03/12 00:24:28;;;;;;;;;;;21.40;30.20;;;;;;5129288;27;19915;-69
2023/03/12 00:26:53;;;;;;;;;;;21.30;30.10;;;;;;5096134;28;20362;-69
2023/03/12 00:29:19;;;;;;;;;;;21.30;30.10;;;;;;5096044;28;20370;-70
2023/03/12 00:31:45;;;;;;;;;;;21.30;30.20;;;;;;5095946;28;20422;-70
2023/03/12 00:34:10;;;;;;;;;;;21.30;30.20;;;;;;5094678;28;19916;-70
2023/03/12 00:36:36;;;;;;;;;;;21.30;30.10;;;;;;5095831;28;19966;-70
2023/03/12 00:39:01;;;;;;;;;;;21.30;30.20;;;;;;5096198;28;19920;-70
2023/03/12 00:41:28;;;;;;;;;;;21.30;30.10;;;;;;5094579;28;19941;-71
2023/03/12 00:43:53;;;;;;;;;;;21.30;30.10;;;;;;5095770;28;19964;-70
2023/03/12 00:46:19;;;;;;;;;;;21.30;30.10;;;;;;5094322;28;19955;-70
2023/03/12 00:48:45;;;;;;;;;;;21.30;30.10;;;;;;5094917;28;19965;-69
2023/03/12 00:51:11;;;;;;;;;;;21.30;30.10;;;;;;5094387;28;20368;-70
2023/03/12 00:53:36;;;;;;;;;;;21.30;30.10;;;;;;5094426;28;19916;-69
2023/03/12 00:56:03;;;;;;;;;;;21.30;30.10;;;;;;5094568;28;19927;-69
2023/03/12 00:58:28;;;;;;;;;;;21.30;30.10;;;;;;5094220;28;19958;-69
2023/03/12 01:00:54;;;;;;;;;;;21.30;30.10;;;;;;5094412;28;19959;-69
2023/03/12 01:03:22;;;;;;;;;;;21.30;30.10;;;;;;5094413;28;19920;-70
2023/03/12 01:05:52;;;;;;;;;;;21.40;30.20;;;;;;5094258;28;20336;-70
2023/03/12 01:08:22;;;;;;;;;;;21.30;30.10;;;;;;5094327;28;19916;-70
2023/03/12 01:10:48;;;;;;;;;;;21.30;30.10;;;;;;5096039;28;19922;-70
2023/03/12 01:13:13;;;;;;;;;;;21.30;30.10;;;;;;5094343;28;20010;-70
2023/03/12 01:15:39;;;;;;;;;;;21.30;30.10;;;;;;5094311;28;19916;-69
2023/03/12 01:18:04;;;;;;;;;;;21.30;30.10;;;;;;5093980;28;20327;-70
2023/03/12 01:20:30;;;;;;;;;;;21.30;30.10;;;;;;5094884;28;20398;-70
2023/03/12 01:22:55;;;;;;;;;;;21.30;30.10;;;;;;5093722;28;19923;-70
2023/03/12 01:25:21;;;;;;;;;;;21.30;30.10;;;;;;5093743;28;19920;-70
2023/03/12 01:27:46;;;;;;;;;;;21.30;30.10;;;;;;5093696;28;19920;-70
2023/03/12 01:30:12;;;;;;;;;;;21.30;30.10;;;;;;5093656;28;20280;-70
2023/03/12 01:32:38;;;;;;;;;;;21.30;30.20;;;;;;5094956;28;19916;-70
2023/03/12 01:35:04;;;;;;;;;;;21.20;30.20;;;;;;5093663;28;19959;-70
2023/03/12 01:37:31;;;;;;;;;;;21.20;30.20;;;;;;5094867;28;19916;-70
2023/03/12 01:39:56;;;;;;;;;;;21.20;30.30;;;;;;5093789;28;19916;-70
2023/03/12 01:42:22;;;;;;;;;;;21.20;30.20;;;;;;5093435;28;19919;-71
2023/03/12 01:47:30;;;;;;;;;;;21.20;30.10;;;;;;5071933;27;3419948;-70
2023/03/12 01:49:56;;;;;;;;;;;21.20;30.20;;;;;;5174339;27;19915;-70
2023/03/12 01:52:23;;;;;;;;;;;21.20;30.90;;;;;;5174505;27;19966;-70
2023/03/12 01:54:52;;;;;;;;;;;21.30;30.20;;;;;;5174709;27;20254;-70
2023/03/12 01:57:19;;;;;;;;;;;21.30;30.10;;;;;;5174359;27;20266;-70
2023/03/12 01:59:47;;;;;;;;;;;21.30;30.10;;;;;;5174357;27;19997;-72
2023/03/12 02:02:13;;;;;;;;;;;21.30;30.10;;;;;;5174371;27;20063;-70
2023/03/12 02:04:40;;;;;;;;;;;21.30;30.00;;;;;;5174478;27;19914;-70
2023/03/12 02:07:08;;;;;;;;;;;21.40;30.00;;;;;;5174155;27;19926;-70
2023/03/12 02:09:35;;;;;;;;;;;21.40;30.00;;;;;;5193227;27;19966;-70
2023/03/12 02:12:01;;;;;;;;;;;21.40;30.00;;;;;;5174343;27;19920;-70
2023/03/12 02:14:27;;;;;;;;;;;21.40;29.90;;;;;;5174173;27;20311;-70
2023/03/12 02:16:52;;;;;;;;;;;21.40;29.90;;;;;;5174616;27;19914;-70
2023/03/12 02:19:23;;;;;;;;;;;21.40;29.90;;;;;;5173820;27;20485;-70
2023/03/12 02:21:48;;;;;;;;;;;21.40;29.90;;;;;;5174257;27;19997;-70
2023/03/12 02:24:20;;;;;;;;;;;21.40;29.90;;;;;;5174119;27;19962;-70
2023/03/12 02:26:48;;;;;;;;;;;21.40;30.00;;;;;;5192746;27;19982;-70
2023/03/12 02:29:14;;;;;;;;;;;21.40;30.00;;;;;;5173788;27;19914;-70
2023/03/12 02:31:43;;;;;;;;;;;21.40;30.00;;;;;;5174015;27;19928;-70
2023/03/12 02:34:09;;;;;;;;;;;21.40;30.00;;;;;;5173896;27;20276;-70
2023/03/12 02:36:37;;;;;;;;;;;21.40;29.90;;;;;;5173566;27;19918;-70
2023/03/12 02:39:04;;;;;;;;;;;21.30;29.90;;;;;;5173918;27;20145;-70
2023/03/12 02:41:31;;;;;;;;;;;21.30;30.00;;;;;;5173800;27;19949;-70
2023/03/12 02:46:40;;;;;;;;;;;21.30;30.00;;;;;;5110186;27;20385;-70
2023/03/12 02:49:06;;;;;;;;;;;21.30;30.00;;;;;;5109031;28;19977;-70
2023/03/12 02:51:31;;;;;;;;;;;21.40;29.90;;;;;;5109426;28;19920;-70
2023/03/12 02:53:57;;;;;;;;;;;21.30;30.00;;;;;;5109001;28;20367;-70
2023/03/12 02:56:24;;;;;;;;;;;21.30;29.90;;;;;;5109073;28;20010;-70
2023/03/12 02:58:49;;;;;;;;;;;21.30;30.00;;;;;;5108872;28;19966;-70
2023/03/12 03:01:15;;;;;;;;;;;21.30;30.00;;;;;;5109015;28;19916;-70
2023/03/12 03:03:41;;;;;;;;;;;21.30;30.00;;;;;;5108804;28;20018;-70
2023/03/12 03:06:07;;;;;;;;;;;21.30;29.90;;;;;;5108709;28;20032;-69
2023/03/12 03:08:32;;;;;;;;;;;21.30;29.90;;;;;;5108693;28;19915;-70
2023/03/12 03:10:59;;;;;;;;;;;21.30;29.90;;;;;;5110054;28;19916;-70
2023/03/12 03:13:24;;;;;;;;;;;21.30;29.90;;;;;;5108662;28;20006;-70
2023/03/12 03:15:50;;;;;;;;;;;21.30;29.90;;;;;;5109803;28;20010;-70
2023/03/12 03:18:16;;;;;;;;;;;21.30;29.90;;;;;;5109722;28;19970;-70
2023/03/12 03:20:43;;;;;;;;;;;21.30;29.80;;;;;;5108746;28;19923;-70
2023/03/12 03:23:08;;;;;;;;;;;21.30;29.80;;;;;;5108335;28;19922;-70
2023/03/12 03:25:34;;;;;;;;;;;21.30;29.80;;;;;;5108316;28;19920;-70
2023/03/12 03:28:00;;;;;;;;;;;21.30;29.90;;;;;;5108553;28;19923;-69
2023/03/12 03:30:25;;;;;;;;;;;21.30;29.90;;;;;;5108342;28;20359;-70
2023/03/12 03:32:51;;;;;;;;;;;21.30;29.80;;;;;;5142416;27;19916;-70
2023/03/12 03:35:16;;;;;;;;;;;21.30;29.90;;;;;;5108554;28;19923;-71
2023/03/12 03:37:42;;;;;;;;;;;21.30;29.90;;;;;;5108582;28;20057;-70
2023/03/12 03:40:11;;;;;;;;;;;21.30;29.90;;;;;;5108378;28;19916;-70
2023/03/12 03:42:37;;;;;;;;;;;21.30;29.90;;;;;;5108051;28;20356;-70
2023/03/12 03:45:03;;;;;;;;;;;21.30;29.80;;;;;;5107554;28;19920;-70
2023/03/12 03:47:28;;;;;;;;;;;21.30;29.80;;;;;;5108140;28;19916;-70
2023/03/12 03:49:57;;;;;;;;;;;21.30;29.80;;;;;;5108220;28;19915;-70
2023/03/12 03:52:22;;;;;;;;;;;21.30;29.80;;;;;;5109169;28;19916;-70
2023/03/12 03:54:48;;;;;;;;;;;21.30;29.80;;;;;;5108126;28;19922;-70
2023/03/12 03:57:13;;;;;;;;;;;21.30;29.80;;;;;;5099712;28;20268;-70
2023/03/12 03:59:39;;;;;;;;;;;21.30;29.80;;;;;;5094080;28;19977;-70
2023/03/12 04:02:04;;;;;;;;;;;21.20;29.90;;;;;;5094341;28;19920;-71
2023/03/12 04:04:30;;;;;;;;;;;21.20;29.90;;;;;;5093914;28;19934;-70
2023/03/12 04:06:55;;;;;;;;;;;21.20;29.90;;;;;;5095544;28;19920;-70
2023/03/12 04:09:21;;;;;;;;;;;21.20;29.90;;;;;;5095302;28;19916;-71
2023/03/12 04:11:47;;;;;;;;;;;21.20;29.90;;;;;;5093960;28;19923;-70
2023/03/12 04:14:12;;;;;;;;;;;21.20;29.90;;;;;;5093966;28;19922;-71
2023/03/12 04:16:38;;;;;;;;;;;21.20;29.90;;;;;;5094285;28;19916;-71
2023/03/12 04:19:03;;;;;;;;;;;21.20;29.90;;;;;;5093948;28;19916;-72
2023/03/12 04:21:29;;;;;;;;;;;21.20;29.90;;;;;;5093689;28;19924;-71
2023/03/12 04:23:55;;;;;;;;;;;21.30;29.90;;;;;;5093949;28;19916;-71
2023/03/12 04:26:20;;;;;;;;;;;21.20;29.90;;;;;;5093591;28;20321;-70
2023/03/12 04:28:46;;;;;;;;;;;21.20;29.80;;;;;;5093812;28;19960;-70
2023/03/12 04:31:11;;;;;;;;;;;21.30;29.80;;;;;;5093565;28;20279;-71
2023/03/12 04:33:38;;;;;;;;;;;21.30;29.70;;;;;;5093681;28;19923;-70
2023/03/12 04:36:03;;;;;;;;;;;21.30;29.70;;;;;;5093440;28;20003;-70
2023/03/12 04:38:29;;;;;;;;;;;21.40;29.70;;;;;;5076879;28;20008;-71
2023/03/12 04:40:57;;;;;;;;;;;21.40;29.60;;;;;;5095039;28;20002;-71
2023/03/12 04:43:23;;;;;;;;;;;21.40;29.60;;;;;;5093392;28;20021;-70
2023/03/12 04:45:48;;;;;;;;;;;21.50;29.50;;;;;;5092767;28;20011;-70
2023/03/12 04:48:14;;;;;;;;;;;21.50;29.40;;;;;;5094396;28;19920;-70
2023/03/12 04:50:39;;;;;;;;;;;21.40;29.50;;;;;;5093372;28;19920;-70
2023/03/12 04:53:05;;;;;;;;;;;21.40;29.40;;;;;;5093347;28;20351;-70
2023/03/12 04:55:30;;;;;;;;;;;21.40;29.50;;;;;;5092987;28;19916;-70
2023/03/12 04:57:56;;;;;;;;;;;21.40;29.50;;;;;;5127444;27;19916;-70
2023/03/12 05:00:21;;;;;;;;;;;21.30;29.60;;;;;;5127036;27;19916;-70
2023/03/12 05:02:50;;;;;;;;;;;21.30;29.50;;;;;;5093202;28;19920;-70
2023/03/12 05:05:15;;;;;;;;;;;21.30;29.50;;;;;;5126902;27;19920;-70
2023/03/12 05:07:41;;;;;;;;;;;21.40;29.50;;;;;;5093509;28;19974;-70
2023/03/12 05:10:09;;;;;;;;;;;21.30;29.60;;;;;;5093681;28;20448;-70
2023/03/12 05:12:35;;;;;;;;;;;21.30;29.50;;;;;;5094481;28;20010;-70
2023/03/12 05:15:00;;;;;;;;;;;21.30;29.50;;;;;;5093819;28;20014;-70
2023/03/12 05:17:26;;;;;;;;;;;21.30;29.50;;;;;;5093066;28;20003;-71
2023/03/12 05:19:52;;;;;;;;;;;21.30;29.60;;;;;;5092570;28;19959;-70
2023/03/12 05:22:17;;;;;;;;;;;21.30;29.50;;;;;;5126851;27;19916;-71
2023/03/12 05:24:43;;;;;;;;;;;21.30;29.60;;;;;;5126512;27;20375;-70
2023/03/12 05:27:08;;;;;;;;;;;21.30;29.60;;;;;;5126903;27;20151;-70
2023/03/12 05:29:34;;;;;;;;;;;21.30;29.50;;;;;;5092721;28;19915;-70
2023/03/12 05:32:00;;;;;;;;;;;21.20;29.60;;;;;;5093589;28;20259;-70
2023/03/12 05:34:29;;;;;;;;;;;21.20;29.50;;;;;;5093531;28;19916;-71
2023/03/12 05:36:55;;;;;;;;;;;21.20;29.50;;;;;;5092201;28;19964;-70
2023/03/12 05:39:20;;;;;;;;;;;21.20;29.50;;;;;;5092331;28;19920;-71
2023/03/12 05:41:55;;;;;;;;;;;21.20;29.50;;;;;;5092402;28;19916;-70
2023/03/12 05:44:23;;;;;;;;;;;21.20;29.50;;;;;;5092301;28;19915;-70
2023/03/12 05:46:49;;;;;;;;;;;21.20;29.50;;;;;;5112918;28;20277;-70
2023/03/12 05:49:18;;;;;;;;;;;21.20;29.50;;;;;;5129650;27;20053;-70
2023/03/12 05:51:45;;;;;;;;;;;21.20;29.50;;;;;;5095345;28;19916;-70
2023/03/12 05:54:11;;;;;;;;;;;21.20;29.50;;;;;;5095551;28;19915;-70
2023/03/12 05:56:36;;;;;;;;;;;21.20;29.50;;;;;;5113527;28;19918;-70
2023/03/12 05:59:02;;;;;;;;;;;21.20;29.50;;;;;;5095575;28;20006;-70
2023/03/12 06:01:28;;;;;;;;;;;21.20;29.60;;;;;;5095537;28;20378;-70
2023/03/12 06:03:54;;;;;;;;;;;21.20;29.50;;;;;;5094981;28;20316;-70
2023/03/12 06:06:19;;;;;;;;;;;21.20;29.50;;;;;;5095160;28;19920;-71
2023/03/12 06:08:45;;;;;;;;;;;21.20;29.50;;;;;;5095012;28;19961;-71
2023/03/12 06:11:10;;;;;;;;;;;21.20;29.50;;;;;;5095410;28;19916;-70
2023/03/12 06:13:36;;;;;;;;;;;21.20;29.40;;;;;;5094971;28;20002;-70
2023/03/12 06:16:03;;;;;;;;;;;21.30;29.50;;;;;;5095072;28;19916;-70
2023/03/12 06:18:30;;;;;;;;;;;21.30;29.50;;;;;;5095157;28;19972;-70
2023/03/12 06:21:05;;;;;;;;;;;21.20;29.50;;;;;;5112856;28;20014;-70
2023/03/12 06:23:31;;;;;;;;;;;21.20;29.50;;;;;;5095094;28;19963;-70
2023/03/12 06:25:56;;;;;;;;;;;21.20;29.50;;;;;;5113169;28;20339;-70
2023/03/12 06:28:22;;;;;;;;;;;21.30;29.50;;;;;;5094779;28;20006;-70
2023/03/12 06:30:47;;;;;;;;;;;21.20;29.40;;;;;;5113107;28;20011;-70
2023/03/12 06:33:13;;;;;;;;;;;21.30;29.50;;;;;;5094667;28;19998;-71
2023/03/12 06:35:38;;;;;;;;;;;21.20;29.40;;;;;;5094622;28;19974;-70
2023/03/12 06:38:04;;;;;;;;;;;21.20;29.50;;;;;;5094937;28;19965;-70
2023/03/12 06:40:29;;;;;;;;;;;21.20;29.50;;;;;;5094669;28;19963;-71
2023/03/12 06:42:55;;;;;;;;;;;21.20;29.50;;;;;;5094923;28;19923;-70
2023/03/12 06:45:20;;;;;;;;;;;21.20;29.50;;;;;;5094819;28;20279;-70
2023/03/12 06:47:46;;;;;;;;;;;21.10;29.60;;;;;;5094431;28;19970;-71
2023/03/12 06:50:12;;;;;;;;;;;21.10;29.60;;;;;;5112663;28;19916;-70
2023/03/12 06:52:39;;;;;;;;;;;21.10;29.50;;;;;;5112786;28;19915;-71
2023/03/12 06:55:05;;;;;;;;;;;21.10;30.00;;;;;;5094470;28;20006;-70
2023/03/12 06:57:30;;;;;;;;;;;21.20;29.50;;;;;;5128873;28;19951;-70
2023/03/12 06:59:56;;;;;;;;;;;21.20;29.50;;;;;;5128463;28;19916;-70
2023/03/12 07:02:21;;;;;;;;;;;21.20;29.50;;;;;;5128563;28;19916;-72
2023/03/12 07:04:47;;;;;;;;;;;21.20;29.50;;;;;;5128415;28;19920;-71
2023/03/12 07:07:12;;;;;;;;;;;21.20;29.40;;;;;;5094349;28;19963;-71
2023/03/12 07:09:38;;;;;;;;;;;21.30;29.40;;;;;;5094341;28;20002;-71
2023/03/12 07:12:03;;;;;;;;;;;21.30;29.40;;;;;;5094351;28;19966;-70
2023/03/12 07:14:29;;;;;;;;;;;21.40;29.30;;;;;;5128783;28;19972;-70
2023/03/12 07:16:55;;;;;;;;;;;21.40;29.30;;;;;;5128475;28;20389;-71
2023/03/12 07:19:21;;;;;;;;;;;21.40;29.20;;;;;;5094163;28;20027;-73
2023/03/12 07:21:46;;;;;;;;;;;21.40;29.20;;;;;;5094524;28;20018;-70
2023/03/12 07:24:12;;;;;;;;;;;21.40;29.20;;;;;;5128639;28;20275;-70
2023/03/12 07:26:38;;;;;;;;;;;21.40;29.80;;;;;;5094145;28;20302;-71
2023/03/12 07:29:04;;;;;;;;;;;21.50;29.20;;;;;;5112665;28;19926;-71
2023/03/12 07:31:29;;;;;;;;;;;21.40;29.30;;;;;;5129365;27;20265;-71
2023/03/12 07:33:55;;;;;;;;;;;21.40;29.30;;;;;;5132555;27;19919;-71
2023/03/12 07:36:20;;;;;;;;;;;21.40;29.30;;;;;;5081015;28;19915;-72
2023/03/12 07:38:46;;;;;;;;;;;21.40;29.30;;;;;;5116546;28;20018;-71
2023/03/12 07:41:12;;;;;;;;;;;21.40;29.30;;;;;;5131985;27;20262;-73
2023/03/12 07:43:37;;;;;;;;;;;21.40;29.30;;;;;;5097836;28;19986;-71
2023/03/12 07:46:03;;;;;;;;;;;21.30;29.30;;;;;;5131899;27;19923;-71
2023/03/12 07:48:28;;;;;;;;;;;21.30;29.30;;;;;;5131880;27;20381;-71
2023/03/12 07:50:54;;;;;;;;;;;21.30;29.30;;;;;;5132054;27;20053;-71
2023/03/12 07:53:19;;;;;;;;;;;21.30;29.40;;;;;;5132074;27;20236;-71
2023/03/12 07:55:46;;;;;;;;;;;21.20;29.30;;;;;;5097552;28;19923;-71
2023/03/12 07:58:12;;;;;;;;;;;21.20;29.40;;;;;;5097869;28;19922;-71
2023/03/12 08:00:37;;;;;;;;;;;21.20;29.40;;;;;;5097539;28;19922;-73
2023/03/12 08:03:03;;;;;;;;;;;21.20;29.40;;;;;;5097749;28;20010;-71
2023/03/12 08:05:29;;;;;;;;;;;21.20;29.40;;;;;;5097397;28;19919;-72
2023/03/12 08:07:57;;;;;;;;;;;21.20;29.40;;;;;;5097241;28;19915;-71
2023/03/12 08:10:23;;;;;;;;;;;21.20;29.40;;;;;;5115598;28;19934;-71
2023/03/12 08:12:49;;;;;;;;;;;21.20;29.40;;;;;;5097697;28;19915;-71
2023/03/12 08:15:14;;;;;;;;;;;21.20;29.40;;;;;;5097534;28;19980;-71
2023/03/12 08:17:40;;;;;;;;;;;21.20;29.40;;;;;;5097375;28;19916;-71
2023/03/12 08:20:09;;;;;;;;;;;21.20;29.40;;;;;;5097194;28;20353;-72
2023/03/12 08:22:35;;;;;;;;;;;21.20;29.40;;;;;;5097384;28;19979;-72
2023/03/12 08:25:01;;;;;;;;;;;21.10;29.40;;;;;;5096940;28;19926;-72
2023/03/12 08:27:27;;;;;;;;;;;21.20;29.50;;;;;;5096938;28;19969;-72
2023/03/12 08:29:52;;;;;;;;;;;21.20;29.40;;;;;;5096940;28;19931;-72
2023/03/12 08:32:18;;;;;;;;;;;21.20;29.50;;;;;;5115179;28;19920;-74
2023/03/12 08:34:43;;;;;;;;;;;21.20;29.50;;;;;;5115137;28;20389;-72
2023/03/12 08:37:09;;;;;;;;;;;21.20;29.50;;;;;;5114949;28;19928;-73
2023/03/12 08:39:35;;;;;;;;;;;21.20;29.50;;;;;;5097007;28;20278;-73
2023/03/12 08:42:01;;;;;;;;;;;21.20;29.50;;;;;;5096870;28;20347;-72
2023/03/12 08:44:26;;;;;;;;;;;21.20;29.50;;;;;;5096911;28;19958;-72
2023/03/12 08:46:52;;;;;;;;;;;21.20;29.50;;;;;;5114619;28;19920;-72
2023/03/12 08:49:20;;;;;;;;;;;21.20;29.40;;;;;;5114952;28;19915;-71
2023/03/12 08:51:46;;;;;;;;;;;21.20;29.50;;;;;;5115352;28;19938;-72
2023/03/12 08:54:15;;;;;;;;;;;21.20;29.50;;;;;;5114613;28;19971;-73
2023/03/12 08:56:42;;;;;;;;;;;21.20;29.50;;;;;;5096428;28;19947;-72
2023/03/12 08:59:08;;;;;;;;;;;21.20;29.50;;;;;;5096587;28;19916;-72
2023/03/12 09:01:34;;;;;;;;;;;21.20;29.50;;;;;;5114643;28;20347;-72
2023/03/12 09:04:01;;;;;;;;;;;21.20;29.50;;;;;;5096193;28;19920;-72
2023/03/12 09:06:26;;;;;;;;;;;21.20;29.50;;;;;;5096194;28;19974;-72
2023/03/12 09:08:55;;;;;;;;;;;21.20;29.50;;;;;;5114304;28;19919;-72
2023/03/12 09:11:20;;;;;;;;;;;21.20;29.60;;;;;;5096139;28;19920;-72
2023/03/12 09:13:46;;;;;;;;;;;21.20;29.60;;;;;;5130101;27;19968;-72
2023/03/12 09:16:11;;;;;;;;;;;21.30;29.70;;;;;;5096027;28;19923;-72
2023/03/12 09:18:37;;;;;;;;;;;21.20;29.60;;;;;;5114292;28;19916;-73
2023/03/12 09:21:03;;;;;;;;;;;21.20;29.60;;;;;;5130334;27;20018;-74
2023/03/12 09:23:28;;;;;;;;;;;21.20;29.60;;;;;;5095828;28;20370;-71
2023/03/12 09:25:54;;;;;;;;;;;21.20;29.60;;;;;;5129998;27;20006;-72
2023/03/12 09:28:20;;;;;;;;;;;21.20;29.70;;;;;;5114738;28;19919;-72
2023/03/12 09:30:46;;;;;;;;;;;21.20;29.80;;;;;;5096019;28;20015;-71
2023/03/12 09:33:13;;;;;;;;;;;21.10;29.80;;;;;;5096029;28;19938;-71
2023/03/12 09:35:40;;;;;;;;;;;21.20;29.80;;;;;;5095532;28;19920;-71
2023/03/12 09:38:05;;;;;;;;;;;21.10;29.80;;;;;;5095951;28;19916;-71
2023/03/12 09:40:32;;;;;;;;;;;21.10;29.80;;;;;;5095542;28;19915;-71
2023/03/12 09:43:01;;;;;;;;;;;21.10;29.90;;;;;;5095905;28;19961;-72
2023/03/12 09:45:29;;;;;;;;;;;21.10;29.90;;;;;;5095341;28;20370;-71
2023/03/12 09:47:57;;;;;;;;;;;21.20;29.90;;;;;;5113566;28;20401;-72
2023/03/12 09:53:24;;;;;;;;;;;21.20;29.90;;;;;;5110348;27;20273;-71
2023/03/12 09:55:51;;;;;;;;;;;21.20;29.80;;;;;;5108710;28;20376;-71
2023/03/12 10:01:00;;;;;;;;;;;21.30;29.80;;;;;;5127655;27;1864567;-71
2023/03/12 10:03:34;;;;;;;;;;;21.40;30.00;;;;;;5193273;27;19915;-71
2023/03/12 10:06:05;;;;;;;;;;;21.40;29.70;;;;;;5174800;27;19918;-73
2023/03/12 10:11:35;;;;;;;;;;;21.40;29.70;;;;;;5110322;27;19908;-72
2023/03/12 10:14:05;;;;;;;;;;;21.50;29.70;;;;;;5110322;28;19950;-72
2023/03/12 10:16:50;;;;;;;;;;;21.40;29.70;;;;;;5109062;28;20018;-71
2023/03/12 10:19:24;;;;;;;;;;;21.50;29.80;;;;;;5108765;28;20375;-74
2023/03/12 10:27:18;;;;;;;;;;;21.40;29.80;;;;;;5110260;27;19908;-71
2023/03/12 10:29:45;;;;;;;;;;;21.40;29.80;;;;;;5109022;28;19922;-71
2023/03/12 10:34:50;;;;;;;;;;;21.30;29.80;;;;;;5128010;27;1866767;-72
2023/03/12 10:40:04;;;;;;;;;;;21.30;29.90;;;;;;5110661;27;19908;-71
2023/03/12 10:42:30;;;;;;;;;;;21.30;29.90;;;;;;5109001;28;19977;-72
2023/03/12 10:47:36;;;;;;;;;;;21.30;30.00;;;;;;5127240;27;1874031;-72
2023/03/12 10:50:21;;;;;;;;;;;21.30;30.00;;;;;;5174838;27;20265;-71
2023/03/12 10:52:48;;;;;;;;;;;21.40;30.00;;;;;;5174303;27;19962;-71
2023/03/12 10:55:23;;;;;;;;;;;21.30;30.00;;;;;;5174634;27;20425;-72
2023/03/12 10:57:49;;;;;;;;;;;21.30;30.00;;;;;;5174685;27;19919;-71
2023/03/12 11:00:19;;;;;;;;;;;21.30;30.00;;;;;;5193142;27;19925;-72
2023/03/12 11:02:46;;;;;;;;;;;21.30;30.10;;;;;;5174643;27;19918;-71
2023/03/12 11:05:23;;;;;;;;;;;21.20;30.10;;;;;;5174642;27;20114;-71
2023/03/12 11:07:50;;;;;;;;;;;21.20;30.10;;;;;;5174440;27;20384;-71
2023/03/12 11:10:18;;;;;;;;;;;21.20;30.10;;;;;;5174551;27;20275;-72
2023/03/12 11:13:03;;;;;;;;;;;21.20;30.10;;;;;;5174303;27;19941;-71
2023/03/12 11:15:37;;;;;;;;;;;21.30;30.20;;;;;;5173844;27;19918;-71
2023/03/12 11:18:24;;;;;;;;;;;21.30;30.20;;;;;;5174293;27;19915;-71
2023/03/12 11:20:51;;;;;;;;;;;21.30;30.30;;;;;;5173997;27;19981;-74
2023/03/12 11:23:26;;;;;;;;;;;21.30;30.20;;;;;;5174134;27;19915;-71
2023/03/12 11:25:52;;;;;;;;;;;21.20;30.20;;;;;;5174048;27;19918;-72
2023/03/12 11:28:21;;;;;;;;;;;21.30;30.30;;;;;;5173751;27;19950;-71
2023/03/12 11:30:48;;;;;;;;;;;21.30;30.20;;;;;;5173815;27;19915;-71
2023/03/12 11:33:14;;;;;;;;;;;21.40;30.30;;;;;;5173918;27;19994;-74
2023/03/12 11:35:48;;;;;;;;;;;21.30;30.30;;;;;;5173569;27;20250;-71
2023/03/12 11:41:13;;;;;;;;;;;21.30;30.30;;;;;;5090078;28;19908;-71
2023/03/12 11:49:20;;;;;;;;;;;21.30;30.30;;;;;;5110349;27;19937;-71
2023/03/12 11:54:37;;;;;;;;;;;21.30;30.50;;;;;;5089902;28;19908;-72
2023/03/12 11:57:22;;;;;;;;;;;21.40;30.50;;;;;;5088711;28;19932;-71
2023/03/12 12:00:11;;;;;;;;;;;21.40;30.60;;;;;;5105370;28;20465;-72
2023/03/12 12:02:56;;;;;;;;;;;21.30;30.50;;;;;;5088913;28;19916;-72
2023/03/12 12:08:10;;;;;;;;;;;21.40;30.60;;;;;;5129708;27;1865846;-72
2023/03/12 12:13:22;;;;;;;;;;;21.40;30.60;;;;;;5089905;28;19915;-72
2023/03/12 12:21:31;;;;;;;;;;;21.20;30.80;;;;;;5090066;28;19914;-73
2023/03/12 12:24:00;;;;;;;;;;;21.30;30.90;;;;;;5088607;28;20007;-72
2023/03/12 12:29:20;;;;;;;;;;;21.20;31.00;;;;;;5130972;27;20170;-73
2023/03/12 12:31:52;;;;;;;;;;;21.20;31.00;;;;;;5130921;27;20300;-73
2023/03/12 12:40:09;;;;;;;;;;;21.30;31.80;;;;;;5130926;27;20153;-72
2023/03/12 12:42:43;;;;;;;;;;;21.30;31.10;;;;;;5130857;27;20274;-73
2023/03/12 12:45:12;;;;;;;;;;;21.40;31.10;;;;;;5129945;28;20274;-73
2023/03/12 12:47:43;;;;;;;;;;;21.40;31.10;;;;;;5129446;28;20129;-72
2023/03/12 12:50:14;;;;;;;;;;;21.40;31.10;;;;;;5129575;28;20367;-72
2023/03/12 12:52:40;;;;;;;;;;;21.50;31.00;;;;;;5129387;28;19937;-72
2023/03/12 12:55:11;;;;;;;;;;;21.50;31.00;;;;;;5129520;28;19916;-72
2023/03/12 12:57:40;;;;;;;;;;;21.50;31.00;;;;;;5129437;28;19915;-72
2023/03/12 13:00:19;;;;;;;;;;;21.50;31.40;;;;;;5130693;27;19916;-72
2023/03/12 13:02:46;;;;;;;;;;;21.50;31.00;;;;;;5129091;28;20004;-72
2023/03/12 13:05:17;;;;;;;;;;;21.50;31.00;;;;;;5130485;27;19915;-71
2023/03/12 13:07:42;;;;;;;;;;;21.50;31.10;;;;;;5129172;28;20358;-73
2023/03/12 13:10:28;;;;;;;;;;;21.50;31.20;;;;;;5129494;28;19919;-72
2023/03/12 13:12:55;;;;;;;;;;;21.50;31.30;;;;;;5130043;28;19916;-72
2023/03/12 13:15:42;;;;;;;;;;;21.50;31.30;;;;;;5129200;28;19982;-72
2023/03/12 13:18:27;;;;;;;;;;;21.50;31.30;;;;;;5128957;28;19965;-72
2023/03/12 13:23:40;;;;;;;;;;;21.40;31.40;;;;;;5110664;27;19908;-72
2023/03/12 13:26:14;;;;;;;;;;;21.40;31.50;;;;;;5109055;28;19919;-72
2023/03/12 13:28:57;;;;;;;;;;;21.40;31.50;;;;;;5108983;28;19922;-72
2023/03/12 13:36:59;;;;;;;;;;;21.40;31.80;;;;;;5133545;27;1867844;-72
2023/03/12 13:42:33;;;;;;;;;;;21.40;31.90;;;;;;5090037;28;19912;-72
2023/03/12 13:45:10;;;;;;;;;;;21.30;31.80;;;;;;5105916;28;19921;-72
2023/03/12 13:47:41;;;;;;;;;;;21.40;32.00;;;;;;5088616;28;20399;-72
2023/03/12 13:50:12;;;;;;;;;;;21.30;31.90;;;;;;5105790;28;19946;-71
2023/03/12 13:55:23;;;;;;;;;;;21.40;32.00;;;;;;5127259;27;1875570;-72
2023/03/12 13:57:49;;;;;;;;;;;21.30;32.10;;;;;;5174804;27;19915;-72
2023/03/12 14:00:18;;;;;;;;;;;21.40;32.10;;;;;;5174478;27;19940;-72
2023/03/12 14:02:47;;;;;;;;;;;21.40;32.10;;;;;;5174432;27;19968;-72
2023/03/12 14:05:14;;;;;;;;;;;21.40;32.20;;;;;;5174678;27;19997;-73
2023/03/12 14:07:46;;;;;;;;;;;21.40;32.20;;;;;;5174656;27;19937;-72
2023/03/12 14:10:29;;;;;;;;;;;21.40;32.20;;;;;;5174260;27;19915;-72
2023/03/12 14:16:10;;;;;;;;;;;21.40;32.20;;;;;;5110384;27;19914;-74
2023/03/12 14:18:43;;;;;;;;;;;21.50;32.30;;;;;;5108983;28;19997;-73
2023/03/12 14:21:11;;;;;;;;;;;21.50;32.30;;;;;;5143795;27;19955;-73
2023/03/12 14:23:39;;;;;;;;;;;21.40;32.30;;;;;;5109176;28;19938;-72
2023/03/12 14:26:05;;;;;;;;;;;21.40;32.40;;;;;;5109240;28;19938;-73
2023/03/12 14:28:36;;;;;;;;;;;21.50;32.40;;;;;;5110328;28;20351;-72
2023/03/12 14:31:11;;;;;;;;;;;21.40;32.40;;;;;;5108882;28;20371;-72
2023/03/12 14:33:49;;;;;;;;;;;21.50;32.50;;;;;;5108704;28;19923;-73
2023/03/12 14:36:16;;;;;;;;;;;21.40;32.50;;;;;;5109104;28;20341;-72
2023/03/12 14:38:43;;;;;;;;;;;21.50;32.50;;;;;;5108656;28;20010;-73
2023/03/12 14:43:52;;;;;;;;;;;21.50;32.60;;;;;;5110359;27;20003;-72
2023/03/12 14:46:20;;;;;;;;;;;21.50;32.60;;;;;;5109305;28;19916;-72
2023/03/12 14:48:47;;;;;;;;;;;21.40;32.60;;;;;;5110364;28;20002;-73
2023/03/12 14:51:18;;;;;;;;;;;21.50;32.70;;;;;;5109478;28;20014;-73
2023/03/12 14:53:43;;;;;;;;;;;21.50;32.70;;;;;;5109014;28;19958;-72
2023/03/12 14:58:50;;;;;;;;;;;21.50;32.70;;;;;;5110553;27;20401;-72
2023/03/12 15:01:19;;;;;;;;;;;21.50;32.80;;;;;;5110215;28;19916;-72
2023/03/12 15:03:46;;;;;;;;;;;21.50;32.80;;;;;;5108936;28;19916;-72
2023/03/12 15:06:13;;;;;;;;;;;21.50;32.80;;;;;;5108986;28;20079;-73
2023/03/12 15:08:41;;;;;;;;;;;21.40;32.80;;;;;;5109179;28;19920;-73
2023/03/12 15:11:09;;;;;;;;;;;21.60;32.90;;;;;;5110300;28;19916;-73
2023/03/12 15:13:35;;;;;;;;;;;21.50;32.90;;;;;;5108802;28;19942;-72
2023/03/12 15:16:01;;;;;;;;;;;21.50;32.90;;;;;;5108858;28;19966;-74
2023/03/12 15:18:28;;;;;;;;;;;21.50;33.00;;;;;;5109000;28;20310;-73
2023/03/12 15:20:56;;;;;;;;;;;21.50;33.00;;;;;;5108951;28;19995;-73
2023/03/12 15:23:23;;;;;;;;;;;21.50;33.00;;;;;;5109018;28;19916;-73
2023/03/12 15:26:07;;;;;;;;;;;21.50;33.00;;;;;;5108529;28;19920;-72
2023/03/12 15:28:32;;;;;;;;;;;21.50;33.10;;;;;;5142763;27;19926;-72
2023/03/12 15:33:59;;;;;;;;;;;21.40;33.10;;;;;;5110372;27;19908;-72
2023/03/12 15:36:26;;;;;;;;;;;21.60;33.20;;;;;;5108922;28;20392;-73
2023/03/12 15:39:03;;;;;;;;;;;21.50;33.20;;;;;;5109377;28;20279;-72
2023/03/12 15:41:47;;;;;;;;;;;21.50;33.30;;;;;;5109129;28;20236;-73